Hartford Brainard Airport
KHFD : now visible

Airfield :











YOU CAN JOIN US ON...

 
LOGIN :

Register | Disclaimer

   EN    FR    IT 

 









Legend :    VFR   Marginal VFR   IFR   Intensive IFR   Very Intensive IFR
Visi :
Ceiling :
>= 8 km
>= 3000ft
5 to 8 km
1000 to 3000 ft
1500m to 5 km
500 to 1000 ft
800 to 1500m
200 to 500 ft
< 800m
< 200 ft
Symbols :   Thunderstorms  Fog  Heavy snow  Heavy precipitations  Wind > 20 kt






- Airport Elevation : 18 ft


KHFD - Hartford Brainard

CURRENT METAR :
  • 250842Z AUTO 01004KT 8SM OVC015 12/11 A3023 RMK AO2 P0001 T01220106

EXPIRED METARs :
  • 250810Z AUTO 35004KT 5SM BR FEW005 OVC012 13/11 A3024 RMK AO2 P0001 T01280111
  • 250753Z AUTO 35005KT 4SM BR BKN012 OVC018 13/11 A3023 RMK AO2 RAB34E47 SLP238 P0000 T01280111
  • 250653Z AUTO 03004KT 3SM HZ BKN015 OVC021 13/10 A3023 RMK AO2 SLP237 T01280100
  • 250553Z AUTO 03004KT 10SM OVC019 14/09 A3023 RMK AO2 SLP238 T01390094 10183 20128 58005

TAF N/A
KZBW FIR / North America



MET'MAP, your aeronautical weather chart ! - Copyright ORBIFLY December 2007 - Disclaimer

ORBIFLY MET'MAP TEAM :

Programming & Development : Alexandra Zaïnal
Concept & original design : Baudouin d'Aumeries
Assistance for programming : Marc-Olivier Méhu
Technical & hardware support : Manuel Goepfert

Contact : metmap@orbifly.com




SOURCES & CREDITS :

   NOAA       Earth
Advisory